sensor_id;sensor_type;location;lat;lon;timestamp;pressure;altitude;pressure_sealevel;temperature;humidity
62051;BME280;48008;51.204;6.766;2022-07-24T00:02:05;101520.25;;;19.45;66.77
62051;BME280;48008;51.204;6.766;2022-07-24T00:04:32;101516.28;;;19.41;67.50
62051;BME280;48008;51.204;6.766;2022-07-24T00:07:01;101512.91;;;19.32;67.66
62051;BME280;48008;51.204;6.766;2022-07-24T00:09:27;101518.72;;;19.35;67.61
62051;BME280;48008;51.204;6.766;2022-07-24T00:11:54;101520.13;;;19.31;67.75
62051;BME280;48008;51.204;6.766;2022-07-24T00:14:21;101506.88;;;19.30;68.14
62051;BME280;48008;51.204;6.766;2022-07-24T00:16:47;101503.94;;;19.25;68.33
62051;BME280;48008;51.204;6.766;2022-07-24T00:19:14;101512.22;;;19.23;68.33
62051;BME280;48008;51.204;6.766;2022-07-24T00:21:41;101512.13;;;19.16;68.88
62051;BME280;48008;51.204;6.766;2022-07-24T00:24:07;101513.41;;;19.21;69.02
62051;BME280;48008;51.204;6.766;2022-07-24T00:26:34;101511.50;;;19.14;69.26
62051;BME280;48008;51.204;6.766;2022-07-24T00:29:02;101510.22;;;19.10;69.24
62051;BME280;48008;51.204;6.766;2022-07-24T00:31:29;101511.41;;;19.08;69.47
62051;BME280;48008;51.204;6.766;2022-07-24T00:33:56;101514.69;;;19.03;69.62
62051;BME280;48008;51.204;6.766;2022-07-24T00:36:22;101508.69;;;19.01;68.90
62051;BME280;48008;51.204;6.766;2022-07-24T00:38:49;101498.75;;;19.02;69.13
62051;BME280;48008;51.204;6.766;2022-07-24T00:41:16;101500.63;;;19.01;69.71
62051;BME280;48008;51.204;6.766;2022-07-24T00:44:17;101499.13;;;18.98;69.21
62051;BME280;48008;51.204;6.766;2022-07-24T00:46:45;101502.97;;;18.89;68.77
62051;BME280;48008;51.204;6.766;2022-07-24T00:49:16;101506.69;;;18.88;68.95
62051;BME280;48008;51.204;6.766;2022-07-24T00:51:46;101498.81;;;18.87;68.31
62051;BME280;48008;51.204;6.766;2022-07-24T00:54:15;101502.59;;;18.77;68.66
62051;BME280;48008;51.204;6.766;2022-07-24T00:56:43;101506.31;;;18.76;68.77
62051;BME280;48008;51.204;6.766;2022-07-24T00:59:11;101505.84;;;18.73;68.50
62051;BME280;48008;51.204;6.766;2022-07-24T01:01:38;101509.56;;;18.72;68.67
62051;BME280;48008;51.204;6.766;2022-07-24T01:04:04;101504.44;;;18.77;68.32
62051;BME280;48008;51.204;6.766;2022-07-24T01:06:32;101515.84;;;18.79;69.07
62051;BME280;48008;51.204;6.766;2022-07-24T01:08:59;101507.88;;;18.86;68.42
62051;BME280;48008;51.204;6.766;2022-07-24T01:11:26;101512.97;;;18.80;68.13
62051;BME280;48008;51.204;6.766;2022-07-24T01:13:53;101509.63;;;18.78;68.65
62051;BME280;48008;51.204;6.766;2022-07-24T01:16:20;101513.84;;;18.81;68.08
62051;BME280;48008;51.204;6.766;2022-07-24T01:18:47;101508.00;;;18.77;68.85
62051;BME280;48008;51.204;6.766;2022-07-24T01:21:13;101504.63;;;18.75;68.86
62051;BME280;48008;51.204;6.766;2022-07-24T01:23:40;101500.75;;;18.78;68.83
62051;BME280;48008;51.204;6.766;2022-07-24T01:26:07;101500.09;;;18.76;68.89
62051;BME280;48008;51.204;6.766;2022-07-24T01:28:35;101503.16;;;18.73;68.16
62051;BME280;48008;51.204;6.766;2022-07-24T01:31:02;101503.81;;;18.75;68.25
62051;BME280;48008;51.204;6.766;2022-07-24T01:33:29;101506.94;;;18.78;68.50
62051;BME280;48008;51.204;6.766;2022-07-24T01:35:56;101504.84;;;18.74;68.93
62051;BME280;48008;51.204;6.766;2022-07-24T01:38:23;101498.63;;;18.73;68.54
62051;BME280;48008;51.204;6.766;2022-07-24T01:40:49;101501.25;;;18.67;68.82
62051;BME280;48008;51.204;6.766;2022-07-24T01:43:16;101496.97;;;18.72;68.61
62051;BME280;48008;51.204;6.766;2022-07-24T01:45:43;101483.81;;;18.63;68.67
62051;BME280;48008;51.204;6.766;2022-07-24T01:48:09;101494.78;;;18.61;68.88
62051;BME280;48008;51.204;6.766;2022-07-24T01:50:38;101495.22;;;18.65;69.04
62051;BME280;48008;51.204;6.766;2022-07-24T01:53:04;101484.03;;;18.61;69.06
62051;BME280;48008;51.204;6.766;2022-07-24T01:55:31;101490.41;;;18.60;69.15
62051;BME280;48008;51.204;6.766;2022-07-24T01:57:58;101487.72;;;18.60;69.17
62051;BME280;48008;51.204;6.766;2022-07-24T02:00:25;101491.69;;;18.64;69.72
62051;BME280;48008;51.204;6.766;2022-07-24T02:02:51;101489.41;;;18.61;69.39
62051;BME280;48008;51.204;6.766;2022-07-24T02:05:19;101480.31;;;18.62;69.70
62051;BME280;48008;51.204;6.766;2022-07-24T02:07:54;101493.41;;;18.50;69.80
62051;BME280;48008;51.204;6.766;2022-07-24T02:10:23;101487.53;;;18.61;69.82
62051;BME280;48008;51.204;6.766;2022-07-24T02:12:49;101486.72;;;18.61;69.76
62051;BME280;48008;51.204;6.766;2022-07-24T02:15:16;101486.81;;;18.53;70.09
62051;BME280;48008;51.204;6.766;2022-07-24T02:17:51;101486.91;;;18.59;70.03
62051;BME280;48008;51.204;6.766;2022-07-24T02:20:19;101480.03;;;18.57;70.04
62051;BME280;48008;51.204;6.766;2022-07-24T02:22:46;101481.25;;;18.54;70.06
62051;BME280;48008;51.204;6.766;2022-07-24T02:25:13;101482.25;;;18.53;69.81
62051;BME280;48008;51.204;6.766;2022-07-24T02:27:41;101485.34;;;18.50;69.97
62051;BME280;48008;51.204;6.766;2022-07-24T02:30:10;101475.44;;;18.51;70.06
62051;BME280;48008;51.204;6.766;2022-07-24T02:32:38;101475.88;;;18.54;69.86
62051;BME280;48008;51.204;6.766;2022-07-24T02:35:05;101471.53;;;18.53;69.73
62051;BME280;48008;51.204;6.766;2022-07-24T02:37:36;101473.56;;;18.51;69.62
62051;BME280;48008;51.204;6.766;2022-07-24T02:40:04;101468.66;;;18.55;70.04
62051;BME280;48008;51.204;6.766;2022-07-24T02:42:31;101476.44;;;18.50;70.54
62051;BME280;48008;51.204;6.766;2022-07-24T02:44:58;101469.41;;;18.49;70.15
62051;BME280;48008;51.204;6.766;2022-07-24T02:47:25;101474.50;;;18.44;70.07
62051;BME280;48008;51.204;6.766;2022-07-24T02:49:51;101471.00;;;18.43;70.18
62051;BME280;48008;51.204;6.766;2022-07-24T02:52:18;101472.00;;;18.42;70.00
62051;BME280;48008;51.204;6.766;2022-07-24T02:54:45;101469.97;;;18.44;70.49
62051;BME280;48008;51.204;6.766;2022-07-24T02:57:12;101467.59;;;18.34;70.46
62051;BME280;48008;51.204;6.766;2022-07-24T02:59:38;101470.91;;;18.36;70.21
62051;BME280;48008;51.204;6.766;2022-07-24T03:02:05;101472.59;;;18.37;70.41
62051;BME280;48008;51.204;6.766;2022-07-24T03:04:32;101470.81;;;18.30;70.72
62051;BME280;48008;51.204;6.766;2022-07-24T03:06:59;101467.88;;;18.25;70.30
62051;BME280;48008;51.204;6.766;2022-07-24T03:09:25;101462.97;;;18.28;70.11
62051;BME280;48008;51.204;6.766;2022-07-24T03:11:53;101462.97;;;18.28;70.30
62051;BME280;48008;51.204;6.766;2022-07-24T03:14:19;101463.53;;;18.23;70.67
62051;BME280;48008;51.204;6.766;2022-07-24T03:16:46;101464.81;;;18.13;70.59
62051;BME280;48008;51.204;6.766;2022-07-24T03:19:13;101458.25;;;18.15;71.26
62051;BME280;48008;51.204;6.766;2022-07-24T03:21:39;101455.19;;;18.18;70.86
62051;BME280;48008;51.204;6.766;2022-07-24T03:24:15;101451.50;;;18.19;70.85
62051;BME280;48008;51.204;6.766;2022-07-24T03:26:41;101449.00;;;18.18;70.89
62051;BME280;48008;51.204;6.766;2022-07-24T03:29:08;101457.06;;;18.18;71.09
62051;BME280;48008;51.204;6.766;2022-07-24T03:31:35;101466.94;;;18.02;70.96
62051;BME280;48008;51.204;6.766;2022-07-24T03:34:02;101466.13;;;18.02;71.27
62051;BME280;48008;51.204;6.766;2022-07-24T03:36:28;101467.53;;;17.98;71.21
62051;BME280;48008;51.204;6.766;2022-07-24T03:38:55;101469.63;;;18.02;71.35
62051;BME280;48008;51.204;6.766;2022-07-24T03:41:21;101470.50;;;18.03;71.40
62051;BME280;48008;51.204;6.766;2022-07-24T03:43:48;101460.84;;;18.09;71.20
62051;BME280;48008;51.204;6.766;2022-07-24T03:46:15;101471.50;;;18.02;71.80
62051;BME280;48008;51.204;6.766;2022-07-24T03:48:42;101466.03;;;18.10;71.73
62051;BME280;48008;51.204;6.766;2022-07-24T03:51:08;101477.16;;;18.07;71.80
62051;BME280;48008;51.204;6.766;2022-07-24T03:53:36;101470.78;;;18.08;72.17
62051;BME280;48008;51.204;6.766;2022-07-24T03:56:07;101471.59;;;18.09;71.72
62051;BME280;48008;51.204;6.766;2022-07-24T03:58:34;101484.75;;;18.03;72.26
62051;BME280;48008;51.204;6.766;2022-07-24T04:01:04;101478.09;;;17.99;72.56
62051;BME280;48008;51.204;6.766;2022-07-24T04:03:31;101479.56;;;18.02;72.58
62051;BME280;48008;51.204;6.766;2022-07-24T04:06:00;101484.19;;;18.08;72.58
62051;BME280;48008;51.204;6.766;2022-07-24T04:08:27;101477.78;;;18.09;72.57
62051;BME280;48008;51.204;6.766;2022-07-24T04:10:54;101482.69;;;17.91;72.49
62051;BME280;48008;51.204;6.766;2022-07-24T04:13:25;101481.41;;;18.01;72.49
62051;BME280;48008;51.204;6.766;2022-07-24T04:15:53;101475.69;;;18.05;73.19
62051;BME280;48008;51.204;6.766;2022-07-24T04:18:21;101474.75;;;18.12;73.04
62051;BME280;48008;51.204;6.766;2022-07-24T04:20:48;101478.63;;;18.10;72.73
62051;BME280;48008;51.204;6.766;2022-07-24T04:23:15;101481.31;;;18.10;72.74
62051;BME280;48008;51.204;6.766;2022-07-24T04:25:42;101475.75;;;18.11;72.61
62051;BME280;48008;51.204;6.766;2022-07-24T04:28:08;101468.72;;;18.10;72.89
62051;BME280;48008;51.204;6.766;2022-07-24T04:30:35;101473.34;;;18.16;72.38
62051;BME280;48008;51.204;6.766;2022-07-24T04:33:02;101479.06;;;18.13;72.14
62051;BME280;48008;51.204;6.766;2022-07-24T04:35:29;101477.59;;;18.11;72.26
62051;BME280;48008;51.204;6.766;2022-07-24T04:37:55;101468.53;;;18.12;72.24
62051;BME280;48008;51.204;6.766;2022-07-24T04:40:22;101469.47;;;18.04;72.24
62051;BME280;48008;51.204;6.766;2022-07-24T04:42:49;101481.13;;;18.11;72.37
62051;BME280;48008;51.204;6.766;2022-07-24T04:45:15;101467.34;;;18.14;71.70
62051;BME280;48008;51.204;6.766;2022-07-24T04:47:42;101464.38;;;18.09;71.84
62051;BME280;48008;51.204;6.766;2022-07-24T04:50:09;101469.44;;;18.19;71.23
62051;BME280;48008;51.204;6.766;2022-07-24T04:52:36;101472.88;;;18.28;71.87
62051;BME280;48008;51.204;6.766;2022-07-24T04:55:03;101467.88;;;18.25;71.32
62051;BME280;48008;51.204;6.766;2022-07-24T04:57:30;101474.09;;;18.25;71.22
62051;BME280;48008;51.204;6.766;2022-07-24T04:59:56;101463.81;;;18.29;71.78
62051;BME280;48008;51.204;6.766;2022-07-24T05:02:23;101467.94;;;18.31;71.56
62051;BME280;48008;51.204;6.766;2022-07-24T05:04:50;101460.06;;;18.30;71.63
62051;BME280;48008;51.204;6.766;2022-07-24T05:07:17;101460.81;;;18.38;71.43
62051;BME280;48008;51.204;6.766;2022-07-24T05:09:44;101465.19;;;18.39;71.37
62051;BME280;48008;51.204;6.766;2022-07-24T05:12:11;101458.41;;;18.44;70.92
62051;BME280;48008;51.204;6.766;2022-07-24T05:14:37;101466.56;;;18.35;71.07
62051;BME280;48008;51.204;6.766;2022-07-24T05:17:04;101462.41;;;18.33;71.28
62051;BME280;48008;51.204;6.766;2022-07-24T05:19:31;101467.28;;;18.44;70.91
62051;BME280;48008;51.204;6.766;2022-07-24T05:21:57;101472.28;;;18.47;71.48
62051;BME280;48008;51.204;6.766;2022-07-24T05:24:24;101474.59;;;18.50;70.48
62051;BME280;48008;51.204;6.766;2022-07-24T05:26:52;101473.75;;;18.50;70.00
62051;BME280;48008;51.204;6.766;2022-07-24T05:29:19;101475.31;;;18.59;69.64
62051;BME280;48008;51.204;6.766;2022-07-24T05:31:46;101484.94;;;18.68;70.17
62051;BME280;48008;51.204;6.766;2022-07-24T05:34:13;101491.88;;;18.77;70.20
62051;BME280;48008;51.204;6.766;2022-07-24T05:36:40;101500.28;;;18.74;69.59
62051;BME280;48008;51.204;6.766;2022-07-24T05:39:07;101504.06;;;18.80;68.50
62051;BME280;48008;51.204;6.766;2022-07-24T05:41:34;101512.81;;;18.82;68.69
62051;BME280;48008;51.204;6.766;2022-07-24T05:44:01;101512.25;;;18.72;69.15
62051;BME280;48008;51.204;6.766;2022-07-24T05:46:27;101505.66;;;18.74;70.09
62051;BME280;48008;51.204;6.766;2022-07-24T05:48:54;101503.63;;;18.76;70.75
62051;BME280;48008;51.204;6.766;2022-07-24T05:51:21;101503.44;;;18.78;70.67
62051;BME280;48008;51.204;6.766;2022-07-24T05:53:48;101509.44;;;18.80;69.56
62051;BME280;48008;51.204;6.766;2022-07-24T05:56:15;101512.94;;;18.95;69.41
62051;BME280;48008;51.204;6.766;2022-07-24T05:58:42;101505.38;;;18.84;69.66
62051;BME280;48008;51.204;6.766;2022-07-24T06:01:08;101501.22;;;18.82;71.10
62051;BME280;48008;51.204;6.766;2022-07-24T06:03:36;101505.94;;;18.79;71.58
62051;BME280;48008;51.204;6.766;2022-07-24T06:06:04;101513.16;;;18.79;70.82
62051;BME280;48008;51.204;6.766;2022-07-24T06:08:33;101514.81;;;18.95;70.79
62051;BME280;48008;51.204;6.766;2022-07-24T06:11:00;101512.44;;;18.85;71.34
62051;BME280;48008;51.204;6.766;2022-07-24T06:13:26;101512.31;;;18.93;71.03
62051;BME280;48008;51.204;6.766;2022-07-24T06:15:53;101512.28;;;19.08;71.00
62051;BME280;48008;51.204;6.766;2022-07-24T06:18:20;101507.34;;;19.12;71.38
62051;BME280;48008;51.204;6.766;2022-07-24T06:20:46;101509.97;;;19.05;70.88
62051;BME280;48008;51.204;6.766;2022-07-24T06:23:13;101515.34;;;19.27;69.95
62051;BME280;48008;51.204;6.766;2022-07-24T06:25:40;101510.91;;;19.19;69.64
62051;BME280;48008;51.204;6.766;2022-07-24T06:28:07;101502.00;;;19.18;70.97
62051;BME280;48008;51.204;6.766;2022-07-24T06:30:33;101504.97;;;19.24;71.52
62051;BME280;48008;51.204;6.766;2022-07-24T06:33:00;101500.03;;;19.27;70.85
62051;BME280;48008;51.204;6.766;2022-07-24T06:35:28;101505.22;;;19.29;69.88
62051;BME280;48008;51.204;6.766;2022-07-24T06:37:55;101504.44;;;19.35;70.28
62051;BME280;48008;51.204;6.766;2022-07-24T06:40:22;101503.41;;;19.36;69.99
62051;BME280;48008;51.204;6.766;2022-07-24T06:42:49;101502.75;;;19.55;68.33
62051;BME280;48008;51.204;6.766;2022-07-24T06:45:16;101495.69;;;19.54;69.46
62051;BME280;48008;51.204;6.766;2022-07-24T06:47:42;101501.72;;;19.56;69.42
62051;BME280;48008;51.204;6.766;2022-07-24T06:50:11;101495.31;;;19.58;68.06
62051;BME280;48008;51.204;6.766;2022-07-24T06:52:38;101495.16;;;19.66;68.69
62051;BME280;48008;51.204;6.766;2022-07-24T06:55:06;101494.97;;;19.67;68.62
62051;BME280;48008;51.204;6.766;2022-07-24T06:57:34;101492.59;;;19.79;67.63
62051;BME280;48008;51.204;6.766;2022-07-24T07:00:01;101491.44;;;19.88;67.92
62051;BME280;48008;51.204;6.766;2022-07-24T07:02:27;101480.69;;;19.95;67.67
62051;BME280;48008;51.204;6.766;2022-07-24T07:04:54;101491.25;;;19.97;66.69
62051;BME280;48008;51.204;6.766;2022-07-24T07:07:21;101487.31;;;19.99;67.73
62051;BME280;48008;51.204;6.766;2022-07-24T07:09:47;101496.06;;;20.08;67.50
62051;BME280;48008;51.204;6.766;2022-07-24T07:12:14;101490.09;;;20.12;67.05
62051;BME280;48008;51.204;6.766;2022-07-24T07:14:41;101493.63;;;20.13;68.17
62051;BME280;48008;51.204;6.766;2022-07-24T07:17:07;101496.63;;;20.31;65.10
62051;BME280;48008;51.204;6.766;2022-07-24T07:19:34;101501.81;;;20.33;65.59
62051;BME280;48008;51.204;6.766;2022-07-24T07:22:01;101490.44;;;20.38;65.55
62051;BME280;48008;51.204;6.766;2022-07-24T07:24:28;101501.47;;;20.49;64.37
62051;BME280;48008;51.204;6.766;2022-07-24T07:26:54;101504.81;;;20.58;64.42
62051;BME280;48008;51.204;6.766;2022-07-24T07:29:21;101501.78;;;20.75;63.77
62051;BME280;48008;51.204;6.766;2022-07-24T07:31:49;101498.28;;;20.74;64.18
62051;BME280;48008;51.204;6.766;2022-07-24T07:34:16;101499.28;;;20.73;63.08
62051;BME280;48008;51.204;6.766;2022-07-24T07:36:43;101493.31;;;20.78;63.56
62051;BME280;48008;51.204;6.766;2022-07-24T07:39:10;101499.97;;;20.88;63.56
62051;BME280;48008;51.204;6.766;2022-07-24T07:41:36;101503.09;;;21.05;61.85
62051;BME280;48008;51.204;6.766;2022-07-24T07:44:03;101509.53;;;21.24;61.47
62051;BME280;48008;51.204;6.766;2022-07-24T07:46:31;101510.81;;;21.28;59.93
62051;BME280;48008;51.204;6.766;2022-07-24T07:48:58;101505.22;;;21.43;59.81
62051;BME280;48008;51.204;6.766;2022-07-24T07:51:24;101505.22;;;21.63;58.69
62051;BME280;48008;51.204;6.766;2022-07-24T07:53:51;101503.75;;;21.81;57.87
62051;BME280;48008;51.204;6.766;2022-07-24T07:56:18;101504.19;;;21.64;58.83
62051;BME280;48008;51.204;6.766;2022-07-24T07:58:46;101500.25;;;21.67;59.15
62051;BME280;48008;51.204;6.766;2022-07-24T08:01:12;101502.69;;;22.02;57.85
62051;BME280;48008;51.204;6.766;2022-07-24T08:03:39;101505.59;;;22.00;58.05
62051;BME280;48008;51.204;6.766;2022-07-24T08:06:06;101505.16;;;22.03;58.50
62051;BME280;48008;51.204;6.766;2022-07-24T08:08:33;101508.03;;;22.22;56.92
62051;BME280;48008;51.204;6.766;2022-07-24T08:10:59;101497.84;;;22.17;57.31
62051;BME280;48008;51.204;6.766;2022-07-24T08:13:26;101489.72;;;22.17;58.21
62051;BME280;48008;51.204;6.766;2022-07-24T08:15:53;101490.75;;;22.30;57.97
62051;BME280;48008;51.204;6.766;2022-07-24T08:18:20;101488.28;;;22.28;58.99
62051;BME280;48008;51.204;6.766;2022-07-24T08:20:46;101486.16;;;22.43;58.20
62051;BME280;48008;51.204;6.766;2022-07-24T08:23:13;101481.97;;;22.48;57.85
62051;BME280;48008;51.204;6.766;2022-07-24T08:25:40;101484.84;;;22.59;57.58
62051;BME280;48008;51.204;6.766;2022-07-24T08:28:07;101481.72;;;22.56;56.22
62051;BME280;48008;51.204;6.766;2022-07-24T08:30:34;101486.47;;;22.60;57.28
62051;BME280;48008;51.204;6.766;2022-07-24T08:33:00;101484.78;;;22.66;56.71
62051;BME280;48008;51.204;6.766;2022-07-24T08:35:27;101480.94;;;22.80;54.63
62051;BME280;48008;51.204;6.766;2022-07-24T08:37:58;101478.00;;;22.89;54.87
62051;BME280;48008;51.204;6.766;2022-07-24T08:40:25;101476.53;;;22.86;55.18
62051;BME280;48008;51.204;6.766;2022-07-24T08:42:52;101476.56;;;23.18;55.01
62051;BME280;48008;51.204;6.766;2022-07-24T08:45:18;101476.25;;;23.33;54.78
62051;BME280;48008;51.204;6.766;2022-07-24T08:47:45;101479.75;;;23.58;51.70
62051;BME280;48008;51.204;6.766;2022-07-24T08:50:12;101472.06;;;23.81;51.73
62051;BME280;48008;51.204;6.766;2022-07-24T08:52:39;101476.03;;;23.78;50.88
62051;BME280;48008;51.204;6.766;2022-07-24T08:55:10;101461.03;;;23.75;51.45
62051;BME280;48008;51.204;6.766;2022-07-24T08:57:36;101463.34;;;23.97;51.76
62051;BME280;48008;51.204;6.766;2022-07-24T09:00:04;101460.03;;;24.13;50.37
62051;BME280;48008;51.204;6.766;2022-07-24T09:02:31;101455.81;;;24.18;50.32
62051;BME280;48008;51.204;6.766;2022-07-24T09:05:01;101457.25;;;24.20;50.83
62051;BME280;48008;51.204;6.766;2022-07-24T09:07:29;101459.03;;;24.26;51.08
62051;BME280;48008;51.204;6.766;2022-07-24T09:10:06;101459.47;;;24.42;49.98
62051;BME280;48008;51.204;6.766;2022-07-24T09:12:36;101453.53;;;24.33;50.30
62051;BME280;48008;51.204;6.766;2022-07-24T09:15:13;101447.53;;;24.43;50.53
62051;BME280;48008;51.204;6.766;2022-07-24T09:17:51;101443.41;;;24.59;50.71
62051;BME280;48008;51.204;6.766;2022-07-24T09:20:19;101443.69;;;24.69;50.51
62051;BME280;48008;51.204;6.766;2022-07-24T09:22:46;101444.78;;;24.91;49.00
62051;BME280;48008;51.204;6.766;2022-07-24T09:25:20;101435.84;;;24.91;49.99
62051;BME280;48008;51.204;6.766;2022-07-24T09:30:35;101437.50;;;25.04;49.44
62051;BME280;48008;51.204;6.766;2022-07-24T09:35:50;101420.31;;;25.45;48.16
62051;BME280;48008;51.204;6.766;2022-07-24T09:38:22;101424.56;;;25.65;48.49
62051;BME280;48008;51.204;6.766;2022-07-24T09:40:51;101417.09;;;25.72;48.20
62051;BME280;48008;51.204;6.766;2022-07-24T09:43:22;101426.66;;;25.75;48.09
62051;BME280;48008;51.204;6.766;2022-07-24T09:46:06;101420.50;;;25.91;46.88
62051;BME280;48008;51.204;6.766;2022-07-24T09:48:40;101418.97;;;25.95;47.68
62051;BME280;48008;51.204;6.766;2022-07-24T09:51:13;101420.31;;;26.21;48.52
62051;BME280;48008;51.204;6.766;2022-07-24T09:53:42;101422.50;;;26.36;46.14
62051;BME280;48008;51.204;6.766;2022-07-24T09:56:11;101417.56;;;26.50;46.14
62051;BME280;48008;51.204;6.766;2022-07-24T09:58:47;101410.97;;;26.46;45.88
62051;BME280;48008;51.204;6.766;2022-07-24T10:01:17;101408.91;;;26.36;45.16
62051;BME280;48008;51.204;6.766;2022-07-24T10:03:46;101403.94;;;26.33;45.59
62051;BME280;48008;51.204;6.766;2022-07-24T10:06:15;101406.00;;;26.43;45.96
62051;BME280;48008;51.204;6.766;2022-07-24T10:08:46;101400.47;;;26.67;45.35
62051;BME280;48008;51.204;6.766;2022-07-24T10:11:13;101401.56;;;26.83;44.47
62051;BME280;48008;51.204;6.766;2022-07-24T10:13:40;101408.34;;;26.97;43.92
62051;BME280;48008;51.204;6.766;2022-07-24T10:16:28;101401.91;;;27.20;43.76
62051;BME280;48008;51.204;6.766;2022-07-24T10:19:01;101390.09;;;27.14;43.85
62051;BME280;48008;51.204;6.766;2022-07-24T10:21:30;101400.06;;;27.43;43.29
62051;BME280;48008;51.204;6.766;2022-07-24T10:24:11;101403.13;;;27.46;43.73
62051;BME280;48008;51.204;6.766;2022-07-24T10:26:48;101386.44;;;27.43;42.55
62051;BME280;48008;51.204;6.766;2022-07-24T10:29:19;101393.00;;;27.64;42.64
62051;BME280;48008;51.204;6.766;2022-07-24T10:31:48;101384.00;;;27.85;42.23
62051;BME280;48008;51.204;6.766;2022-07-24T10:40:02;101379.53;;;28.23;41.49
62051;BME280;48008;51.204;6.766;2022-07-24T10:42:29;101375.50;;;28.53;43.07
62051;BME280;48008;51.204;6.766;2022-07-24T10:45:17;101383.22;;;28.39;40.23
62051;BME280;48008;51.204;6.766;2022-07-24T10:47:45;101378.94;;;28.16;39.90
62051;BME280;48008;51.204;6.766;2022-07-24T10:50:13;101375.22;;;28.00;39.90
62051;BME280;48008;51.204;6.766;2022-07-24T10:52:43;101374.34;;;28.22;41.56
62051;BME280;48008;51.204;6.766;2022-07-24T10:55:30;101369.53;;;28.34;39.89
62051;BME280;48008;51.204;6.766;2022-07-24T10:58:02;101374.44;;;28.32;38.16
62051;BME280;48008;51.204;6.766;2022-07-24T11:00:33;101360.53;;;28.06;38.04
62051;BME280;48008;51.204;6.766;2022-07-24T11:03:08;101359.81;;;28.43;39.35
62051;BME280;48008;51.204;6.766;2022-07-24T11:06:16;101357.97;;;28.76;38.03
62051;BME280;48008;51.204;6.766;2022-07-24T11:11:21;101356.25;;;28.70;37.25
62051;BME280;48008;51.204;6.766;2022-07-24T11:13:52;101355.59;;;28.90;36.86
62051;BME280;48008;51.204;6.766;2022-07-24T11:16:22;101344.88;;;28.83;36.35
62051;BME280;48008;51.204;6.766;2022-07-24T11:21:40;101352.22;;;28.78;34.75
62051;BME280;48008;51.204;6.766;2022-07-24T11:24:18;101347.84;;;29.14;35.56
62051;BME280;48008;51.204;6.766;2022-07-24T11:27:05;101348.88;;;29.08;34.59
62051;BME280;48008;51.204;6.766;2022-07-24T11:29:36;101339.72;;;29.24;35.11
62051;BME280;48008;51.204;6.766;2022-07-24T11:32:06;101337.75;;;29.15;34.65
62051;BME280;48008;51.204;6.766;2022-07-24T11:34:37;101342.91;;;29.11;34.50
62051;BME280;48008;51.204;6.766;2022-07-24T11:37:05;101338.00;;;29.13;34.14
62051;BME280;48008;51.204;6.766;2022-07-24T11:39:37;101337.53;;;29.26;33.23
62051;BME280;48008;51.204;6.766;2022-07-24T11:42:07;101325.84;;;29.41;34.26
62051;BME280;48008;51.204;6.766;2022-07-24T11:44:37;101331.88;;;29.38;31.92
62051;BME280;48008;51.204;6.766;2022-07-24T11:47:10;101325.56;;;29.38;32.73
62051;BME280;48008;51.204;6.766;2022-07-24T11:49:44;101316.84;;;29.41;33.54
62051;BME280;48008;51.204;6.766;2022-07-24T11:52:14;101314.19;;;29.61;33.02
62051;BME280;48008;51.204;6.766;2022-07-24T11:54:41;101311.72;;;29.65;32.30
62051;BME280;48008;51.204;6.766;2022-07-24T11:57:19;101306.00;;;29.66;32.53
62051;BME280;48008;51.204;6.766;2022-07-24T11:59:56;101305.75;;;29.73;32.43
62051;BME280;48008;51.204;6.766;2022-07-24T12:02:24;101311.00;;;29.90;32.34
62051;BME280;48008;51.204;6.766;2022-07-24T12:04:52;101305.25;;;29.81;32.59
62051;BME280;48008;51.204;6.766;2022-07-24T12:07:23;101305.16;;;29.56;32.62
62051;BME280;48008;51.204;6.766;2022-07-24T12:09:54;101302.50;;;29.81;32.00
62051;BME280;48008;51.204;6.766;2022-07-24T12:12:35;101299.53;;;29.93;31.37
62051;BME280;48008;51.204;6.766;2022-07-24T12:15:11;101302.59;;;30.22;32.44
62051;BME280;48008;51.204;6.766;2022-07-24T12:17:59;101284.78;;;30.25;31.60
62051;BME280;48008;51.204;6.766;2022-07-24T12:20:34;101297.41;;;30.52;31.38
62051;BME280;48008;51.204;6.766;2022-07-24T12:23:04;101298.78;;;30.39;30.89
62051;BME280;48008;51.204;6.766;2022-07-24T12:25:32;101286.44;;;30.26;31.91
62051;BME280;48008;51.204;6.766;2022-07-24T12:28:05;101290.53;;;30.13;30.89
62051;BME280;48008;51.204;6.766;2022-07-24T12:30:36;101284.00;;;30.45;32.08
62051;BME280;48008;51.204;6.766;2022-07-24T12:35:56;101271.94;;;30.10;31.97
62051;BME280;48008;51.204;6.766;2022-07-24T12:41:10;101271.13;;;30.10;32.19
62051;BME280;48008;51.204;6.766;2022-07-24T12:46:36;101253.03;;;30.65;31.01
62051;BME280;48008;51.204;6.766;2022-07-24T12:49:10;101260.69;;;30.84;32.81
62051;BME280;48008;51.204;6.766;2022-07-24T12:51:54;101273.84;;;30.71;30.57
62051;BME280;48008;51.204;6.766;2022-07-24T12:54:25;101253.56;;;30.83;31.50
62051;BME280;48008;51.204;6.766;2022-07-24T12:56:56;101255.75;;;30.80;30.59
62051;BME280;48008;51.204;6.766;2022-07-24T12:59:35;101243.44;;;30.93;31.19
62051;BME280;48008;51.204;6.766;2022-07-24T13:02:04;101240.16;;;30.96;30.57
62051;BME280;48008;51.204;6.766;2022-07-24T13:04:31;101244.53;;;30.82;30.33
62051;BME280;48008;51.204;6.766;2022-07-24T13:07:00;101237.72;;;30.69;31.43
62051;BME280;48008;51.204;6.766;2022-07-24T13:09:28;101229.25;;;30.66;31.94
62051;BME280;48008;51.204;6.766;2022-07-24T13:11:55;101225.66;;;30.70;31.89
62051;BME280;48008;51.204;6.766;2022-07-24T13:14:24;101222.59;;;30.97;32.86
62051;BME280;48008;51.204;6.766;2022-07-24T13:16:52;101222.19;;;31.25;31.12
62051;BME280;48008;51.204;6.766;2022-07-24T13:19:20;101209.09;;;31.16;31.30
62051;BME280;48008;51.204;6.766;2022-07-24T13:21:47;101214.25;;;31.28;31.62
62051;BME280;48008;51.204;6.766;2022-07-24T13:24:15;101213.56;;;31.57;31.05